createdAt,value
2023-07-27T00:00:59.981Z,1005.33
2023-07-27T00:01:59.943Z,1005.31
2023-07-27T00:03:00.043Z,1005.34
2023-07-27T00:04:00.034Z,1005.31
2023-07-27T00:04:59.998Z,1005.34
2023-07-27T00:06:00.032Z,1005.32
2023-07-27T00:07:00.055Z,1005.33
2023-07-27T00:08:00.087Z,1005.34
2023-07-27T00:09:00.104Z,1005.31
2023-07-27T00:10:00.204Z,1005.31
2023-07-27T00:11:00.154Z,1005.31
2023-07-27T00:12:00.181Z,1005.30
2023-07-27T00:13:00.240Z,1005.27
2023-07-27T00:14:00.242Z,1005.26
2023-07-27T00:15:00.283Z,1005.25
2023-07-27T00:16:00.351Z,1005.23
2023-07-27T00:17:00.329Z,1005.23
2023-07-27T00:18:00.409Z,1005.25
2023-07-27T00:19:00.362Z,1005.22
2023-07-27T00:20:00.406Z,1005.22
2023-07-27T00:21:00.432Z,1005.17
2023-07-27T00:22:00.442Z,1005.17
2023-07-27T00:23:00.466Z,1005.16
2023-07-27T00:24:00.499Z,1005.18
2023-07-27T00:25:00.529Z,1005.16
2023-07-27T00:26:00.562Z,1005.14
2023-07-27T00:27:00.573Z,1005.15
2023-07-27T00:28:00.592Z,1005.17
2023-07-27T00:29:00.617Z,1005.17
2023-07-27T00:30:00.664Z,1005.14
2023-07-27T00:31:00.701Z,1005.11
2023-07-27T00:32:00.700Z,1005.12
2023-07-27T00:33:00.824Z,1005.09
2023-07-27T00:34:00.766Z,1005.11
2023-07-27T00:35:00.779Z,1005.08
2023-07-27T00:36:00.796Z,1005.05
2023-07-27T00:37:00.821Z,1005.07
2023-07-27T00:38:00.848Z,1005.04
2023-07-27T00:39:00.874Z,1005.02
2023-07-27T00:40:00.903Z,1005.00
2023-07-27T00:41:00.960Z,1004.99
2023-07-27T00:42:00.950Z,1004.95
2023-07-27T00:43:00.978Z,1004.93
2023-07-27T00:44:01.006Z,1004.95
2023-07-27T00:45:01.057Z,1004.90
2023-07-27T00:46:01.109Z,1004.85
2023-07-27T00:47:01.078Z,1004.84
2023-07-27T00:48:01.151Z,1004.79
2023-07-27T00:49:01.127Z,1004.79
2023-07-27T00:50:01.155Z,1004.75
2023-07-27T00:51:01.210Z,1004.74
2023-07-27T00:52:01.208Z,1004.70
2023-07-27T00:53:01.230Z,1004.72
2023-07-27T00:54:01.254Z,1004.65
2023-07-27T00:55:01.284Z,1004.61
2023-07-27T00:56:01.313Z,1004.62
2023-07-27T00:57:01.340Z,1004.59
2023-07-27T00:58:01.356Z,1004.61
2023-07-27T00:59:01.382Z,1004.56
2023-07-27T01:00:01.406Z,1004.57
2023-07-27T01:01:01.431Z,1004.53
2023-07-27T01:02:01.525Z,1004.52
2023-07-27T01:03:01.544Z,1004.50
2023-07-27T01:04:01.516Z,1004.48
2023-07-27T01:05:01.535Z,1004.46
2023-07-27T01:06:01.557Z,1004.43
2023-07-27T01:07:01.585Z,1004.42
2023-07-27T01:08:01.611Z,1004.42
2023-07-27T01:09:01.648Z,1004.41
2023-07-27T01:10:01.667Z,1004.39
2023-07-27T01:11:01.688Z,1004.41
2023-07-27T01:12:01.722Z,1004.40
2023-07-27T01:13:01.736Z,1004.39
2023-07-27T01:14:01.760Z,1004.32
2023-07-27T01:15:01.792Z,1004.33
2023-07-27T01:16:01.844Z,1004.33
2023-07-27T01:17:01.860Z,1004.28
2023-07-27T01:18:01.929Z,1004.29
2023-07-27T01:19:01.895Z,1004.26
2023-07-27T01:20:01.912Z,1004.24
2023-07-27T01:21:01.950Z,1004.20
2023-07-27T01:22:01.969Z,1004.15
2023-07-27T01:23:01.986Z,1004.11
2023-07-27T01:24:02.015Z,1004.08
2023-07-27T01:25:02.073Z,1004.09
2023-07-27T01:26:02.063Z,1004.09
2023-07-27T01:27:02.095Z,1004.08
2023-07-27T01:28:02.110Z,1004.06
2023-07-27T01:29:02.150Z,1004.02
2023-07-27T01:30:02.166Z,1004.05
2023-07-27T01:31:02.188Z,1004.07
2023-07-27T01:32:02.287Z,1004.02
2023-07-27T01:33:02.288Z,1003.99
2023-07-27T01:34:02.275Z,1003.95
2023-07-27T01:35:02.292Z,1003.98
2023-07-27T01:36:02.317Z,1003.96
2023-07-27T01:37:02.348Z,1003.91
2023-07-27T01:38:02.366Z,1003.91
2023-07-27T01:39:02.391Z,1003.87
2023-07-27T01:40:02.420Z,1003.88
2023-07-27T01:41:02.439Z,1003.86
2023-07-27T01:42:02.469Z,1003.88
2023-07-27T01:43:02.493Z,1003.85
2023-07-27T01:44:02.518Z,1003.83
2023-07-27T01:45:02.554Z,1003.79
2023-07-27T01:46:02.600Z,1003.80
2023-07-27T01:47:02.598Z,1003.81
2023-07-27T01:48:02.620Z,1003.83
2023-07-27T01:49:02.646Z,1003.82
2023-07-27T01:50:02.677Z,1003.80
2023-07-27T01:51:02.711Z,1003.82
2023-07-27T01:52:02.723Z,1003.82
2023-07-27T01:53:02.765Z,1003.80
2023-07-27T01:54:02.775Z,1003.79
2023-07-27T01:55:02.804Z,1003.80
2023-07-27T01:56:02.822Z,1003.77
2023-07-27T01:57:02.845Z,1003.73
2023-07-27T01:58:02.872Z,1003.72
2023-07-27T01:59:02.907Z,1003.68
2023-07-27T02:00:02.927Z,1003.70
2023-07-27T02:01:03.017Z,1003.68
2023-07-27T02:02:02.973Z,1003.67
2023-07-27T02:03:03.065Z,1003.65
2023-07-27T02:04:03.026Z,1003.65
2023-07-27T02:05:03.077Z,1003.65
2023-07-27T02:06:03.081Z,1003.62
2023-07-27T02:07:03.108Z,1003.60
2023-07-27T02:08:03.135Z,1003.61
2023-07-27T02:09:03.155Z,1003.61
2023-07-27T02:10:03.178Z,1003.56
2023-07-27T02:11:03.200Z,1003.57
2023-07-27T02:12:03.229Z,1003.54
2023-07-27T02:13:03.254Z,1003.55
2023-07-27T02:14:03.285Z,1003.53
2023-07-27T02:15:03.307Z,1003.52
2023-07-27T02:16:03.353Z,1003.48
2023-07-27T02:17:03.354Z,1003.49
2023-07-27T02:18:03.439Z,1003.49
2023-07-27T02:19:03.410Z,1003.43
2023-07-27T02:20:03.433Z,1003.40
2023-07-27T02:21:03.458Z,1003.40
2023-07-27T02:22:03.513Z,1003.42
2023-07-27T02:23:03.515Z,1003.40
2023-07-27T02:24:03.549Z,1003.36
2023-07-27T02:25:03.559Z,1003.35
2023-07-27T02:26:03.589Z,1003.38
2023-07-27T02:27:03.614Z,1003.35
2023-07-27T02:28:03.643Z,1003.34
2023-07-27T02:29:03.685Z,1003.32
2023-07-27T02:30:03.686Z,1003.34
2023-07-27T02:31:10.888Z,1003.29
2023-07-27T02:32:56.715Z,1003.30
2023-07-27T02:33:56.678Z,1003.31
2023-07-27T02:36:00.698Z,1003.28
2023-07-27T02:37:00.708Z,1003.26
2023-07-27T02:39:04.757Z,1003.24
2023-07-27T02:40:04.748Z,1003.18
2023-07-27T02:42:08.758Z,1003.16
2023-07-27T02:43:08.784Z,1003.14
2023-07-27T02:45:12.818Z,1003.13
2023-07-27T02:46:12.852Z,1003.12
2023-07-27T02:48:16.846Z,1003.11
2023-07-27T02:49:16.856Z,1003.14
2023-07-27T02:51:20.880Z,1003.06
2023-07-27T02:52:20.892Z,1003.10
2023-07-27T02:54:24.915Z,1003.08
2023-07-27T02:55:24.952Z,1003.10
2023-07-27T02:57:28.942Z,1003.08
2023-07-27T02:58:28.973Z,1003.11
2023-07-27T03:00:33.007Z,1003.09
2023-07-27T03:01:33.029Z,1003.06
2023-07-27T03:03:37.020Z,1003.02
2023-07-27T03:04:37.038Z,1003.06
2023-07-27T03:06:41.055Z,1003.11
2023-07-27T03:07:41.074Z,1003.20
2023-07-27T03:09:45.096Z,1003.27
2023-07-27T03:10:45.106Z,1003.23
2023-07-27T03:12:38.053Z,1003.24
2023-07-27T03:13:38.079Z,1003.22
2023-07-27T03:15:42.088Z,1003.18
2023-07-27T03:16:42.151Z,1003.19
2023-07-27T03:18:46.124Z,1003.19
2023-07-27T03:19:46.132Z,1003.19
2023-07-27T03:21:50.160Z,1003.19
2023-07-27T03:22:50.169Z,1003.21
2023-07-27T03:24:54.219Z,1003.16
2023-07-27T03:25:54.209Z,1003.18
2023-07-27T03:27:58.217Z,1003.14
2023-07-27T03:28:58.248Z,1003.15
2023-07-27T03:31:02.749Z,1003.19
2023-07-27T03:32:02.756Z,1003.19
2023-07-27T03:34:06.780Z,1003.22
2023-07-27T03:35:06.799Z,1003.21
2023-07-27T03:37:10.818Z,1003.21
2023-07-27T03:38:10.837Z,1003.20
2023-07-27T03:40:15.872Z,1003.21
2023-07-27T03:41:15.878Z,1003.20
2023-07-27T03:43:08.832Z,1003.21
2023-07-27T03:44:08.840Z,1003.19
2023-07-27T03:46:12.895Z,1003.16
2023-07-27T03:47:12.868Z,1003.16
2023-07-27T03:49:16.900Z,1003.18
2023-07-27T03:50:16.959Z,1003.19
2023-07-27T03:52:20.933Z,1003.16
2023-07-27T03:53:20.955Z,1003.19
2023-07-27T03:55:24.985Z,1003.19
2023-07-27T03:56:24.988Z,1003.14
2023-07-27T03:58:29.007Z,1003.18
2023-07-27T03:59:29.012Z,1003.18
2023-07-27T04:01:33.044Z,1003.15
2023-07-27T04:02:33.168Z,1003.16
2023-07-27T04:04:37.076Z,1003.15
2023-07-27T04:05:37.093Z,1003.12
2023-07-27T04:07:41.097Z,1003.13
2023-07-27T04:08:41.123Z,1003.13
2023-07-27T04:10:45.148Z,1003.10
2023-07-27T04:11:45.150Z,1003.09
2023-07-27T04:13:49.162Z,1003.09
2023-07-27T04:14:49.190Z,1003.12
2023-07-27T04:16:53.229Z,1003.11
2023-07-27T04:17:53.299Z,1003.06
2023-07-27T04:20:00.270Z,1003.02
2023-07-27T04:20:57.253Z,1003.03
2023-07-27T04:22:50.200Z,1003.00
2023-07-27T04:23:50.257Z,1003.01
2023-07-27T04:25:54.284Z,1003.05
2023-07-27T04:26:54.254Z,1003.01
2023-07-27T04:28:58.767Z,1003.04
2023-07-27T04:29:58.780Z,1003.02
2023-07-27T04:30:58.865Z,1003.03
2023-07-27T04:31:58.824Z,1003.03
2023-07-27T04:32:58.872Z,1003.04
2023-07-27T04:33:58.876Z,1003.04
2023-07-27T04:34:58.901Z,1003.03
2023-07-27T04:35:58.924Z,1003.07
2023-07-27T04:36:58.952Z,1003.05
2023-07-27T04:37:58.984Z,1003.00
2023-07-27T04:38:59.003Z,1003.01
2023-07-27T04:39:59.028Z,1003.02
2023-07-27T04:40:59.057Z,1003.02
2023-07-27T04:41:59.093Z,1003.02
2023-07-27T04:42:59.109Z,1003.01
2023-07-27T04:43:59.133Z,1002.95
2023-07-27T04:45:01.009Z,1002.99
2023-07-27T04:45:59.217Z,1002.96
2023-07-27T04:46:59.213Z,1002.97
2023-07-27T04:47:59.265Z,1002.97
2023-07-27T04:48:59.270Z,1002.95
2023-07-27T04:49:59.289Z,1002.94
2023-07-27T04:50:59.314Z,1002.92
2023-07-27T04:51:59.340Z,1002.91
2023-07-27T04:52:59.369Z,1002.91
2023-07-27T04:53:59.394Z,1002.90
2023-07-27T04:54:59.418Z,1002.89
2023-07-27T04:55:59.447Z,1002.88
2023-07-27T04:56:59.488Z,1002.82
2023-07-27T04:57:59.500Z,1002.81
2023-07-27T04:58:59.538Z,1002.84
2023-07-27T04:59:59.554Z,1002.83
2023-07-27T05:00:59.587Z,1002.80
2023-07-27T05:01:59.646Z,1002.80
2023-07-27T05:02:59.652Z,1002.83
2023-07-27T05:03:59.684Z,1002.84
2023-07-27T05:04:59.682Z,1002.80
2023-07-27T05:05:59.719Z,1002.81
2023-07-27T05:06:59.732Z,1002.74
2023-07-27T05:07:59.766Z,1002.72
2023-07-27T05:08:59.790Z,1002.74
2023-07-27T05:09:59.816Z,1002.71
2023-07-27T05:10:59.842Z,1002.72
2023-07-27T05:11:59.872Z,1002.71
2023-07-27T05:12:59.903Z,1002.68
2023-07-27T05:13:59.924Z,1002.67
2023-07-27T05:14:59.942Z,1002.63
2023-07-27T05:16:00.079Z,1002.64
2023-07-27T05:17:00.000Z,1002.66
2023-07-27T05:18:00.085Z,1002.62
2023-07-27T05:19:00.046Z,1002.62
2023-07-27T05:20:00.075Z,1002.61
2023-07-27T05:21:00.130Z,1002.58
2023-07-27T05:22:00.135Z,1002.58
2023-07-27T05:23:00.152Z,1002.57
2023-07-27T05:24:00.178Z,1002.50
2023-07-27T05:25:00.288Z,1002.49
2023-07-27T05:26:00.241Z,1002.46
2023-07-27T05:27:00.255Z,1002.41
2023-07-27T05:28:00.278Z,1002.47
2023-07-27T05:29:00.660Z,1002.46
2023-07-27T05:30:00.348Z,1002.41
2023-07-27T05:31:00.356Z,1002.42
2023-07-27T05:32:00.395Z,1002.38
2023-07-27T05:33:00.440Z,1002.39
2023-07-27T05:34:00.438Z,1002.42
2023-07-27T05:35:00.466Z,1002.36
2023-07-27T05:36:00.495Z,1002.37
2023-07-27T05:37:00.512Z,1002.37
2023-07-27T05:38:00.556Z,1002.32
2023-07-27T05:39:00.567Z,1002.29
2023-07-27T05:40:00.597Z,1002.27
2023-07-27T05:41:00.624Z,1002.25
2023-07-27T05:42:00.647Z,1002.26
2023-07-27T05:43:00.693Z,1002.20
2023-07-27T05:44:00.700Z,1002.20
2023-07-27T05:45:00.734Z,1002.24
2023-07-27T05:46:00.835Z,1002.23
2023-07-27T05:47:00.774Z,1002.28
2023-07-27T05:48:00.805Z,1002.25
2023-07-27T05:49:00.876Z,1002.21
2023-07-27T05:50:00.858Z,1002.18
2023-07-27T05:51:00.877Z,1002.18
2023-07-27T05:52:00.908Z,1002.16
2023-07-27T05:53:00.937Z,1002.18
2023-07-27T05:54:00.954Z,1002.15
2023-07-27T05:55:01.000Z,1002.16
2023-07-27T05:56:01.006Z,1002.13
2023-07-27T05:57:01.047Z,1002.11
2023-07-27T05:58:10.386Z,1002.07
2023-07-27T05:59:01.084Z,1002.06
2023-07-27T06:00:07.027Z,1002.09
2023-07-27T06:01:01.207Z,1002.07
2023-07-27T06:02:01.166Z,1002.05
2023-07-27T06:03:01.222Z,1002.07
2023-07-27T06:04:07.500Z,1002.04
2023-07-27T06:05:01.241Z,1002.02
2023-07-27T06:06:01.263Z,1002.01
2023-07-27T06:07:01.293Z,1001.99
2023-07-27T06:08:01.324Z,1001.99
2023-07-27T06:09:01.350Z,1001.97
2023-07-27T06:10:01.374Z,1001.98
2023-07-27T06:11:01.399Z,1001.99
2023-07-27T06:12:01.427Z,1001.96
2023-07-27T06:13:01.450Z,1001.94
2023-07-27T06:14:01.475Z,1001.92
2023-07-27T06:15:01.622Z,1001.89
2023-07-27T06:16:01.591Z,1001.89
2023-07-27T06:17:01.566Z,1001.90
2023-07-27T06:18:01.618Z,1001.85
2023-07-27T06:19:01.615Z,1001.85
2023-07-27T06:20:01.632Z,1001.89
2023-07-27T06:21:01.660Z,1001.88
2023-07-27T06:22:01.690Z,1001.85
2023-07-27T06:23:01.715Z,1001.83
2023-07-27T06:24:01.735Z,1001.84
2023-07-27T06:25:01.798Z,1001.80
2023-07-27T06:26:01.793Z,1001.77
2023-07-27T06:27:01.829Z,1001.75
2023-07-27T06:28:01.842Z,1001.73
2023-07-27T06:29:01.874Z,1001.72
2023-07-27T06:30:01.902Z,1001.71
2023-07-27T06:31:01.937Z,1001.70
2023-07-27T06:32:01.983Z,1001.67
2023-07-27T06:33:02.064Z,1001.63
2023-07-27T06:34:02.009Z,1001.61
2023-07-27T06:35:02.043Z,1001.63
2023-07-27T06:36:02.066Z,1001.55
2023-07-27T06:37:02.081Z,1001.51
2023-07-27T06:38:02.103Z,1001.43
2023-07-27T06:39:02.133Z,1001.45
2023-07-27T06:40:02.175Z,1001.37
2023-07-27T06:41:02.200Z,1001.34
2023-07-27T06:42:02.217Z,1001.34
2023-07-27T06:43:02.244Z,1001.32
2023-07-27T06:44:02.269Z,1001.34
2023-07-27T06:45:02.304Z,1001.31
2023-07-27T06:46:02.317Z,1001.35
2023-07-27T06:47:04.246Z,1001.35
2023-07-27T06:48:02.435Z,1001.35
2023-07-27T06:49:02.413Z,1001.35
2023-07-27T06:50:02.424Z,1001.34
2023-07-27T06:51:02.452Z,1001.32
2023-07-27T06:52:02.480Z,1001.29
2023-07-27T06:53:02.501Z,1001.27
2023-07-27T06:54:02.538Z,1001.23
2023-07-27T06:55:02.554Z,1001.20
2023-07-27T06:56:02.587Z,1001.19
2023-07-27T06:57:02.610Z,1001.16
2023-07-27T06:58:02.692Z,1001.17
2023-07-27T06:59:02.669Z,1001.11
2023-07-27T07:00:02.694Z,1001.11
2023-07-27T07:01:02.797Z,1001.06
2023-07-27T07:02:02.811Z,1001.10
2023-07-27T07:03:02.884Z,1001.04
2023-07-27T07:04:02.794Z,1001.04
2023-07-27T07:05:03.056Z,1001.02
2023-07-27T07:06:02.850Z,1000.99
2023-07-27T07:07:02.874Z,1000.97
2023-07-27T07:08:02.904Z,1000.98
2023-07-27T07:09:02.929Z,1000.99
2023-07-27T07:10:03.035Z,1001.00
2023-07-27T07:11:02.980Z,1000.96
2023-07-27T07:12:03.022Z,1000.98
2023-07-27T07:13:03.038Z,1000.96
2023-07-27T07:14:03.062Z,1000.92
2023-07-27T07:15:03.125Z,1000.96
2023-07-27T07:16:03.118Z,1001.04
2023-07-27T07:17:03.213Z,1001.02
2023-07-27T07:18:03.182Z,1001.02
2023-07-27T07:19:03.210Z,1001.03
2023-07-27T07:20:03.218Z,1001.09
2023-07-27T07:21:03.256Z,1001.07
2023-07-27T07:22:03.279Z,1001.10
2023-07-27T07:23:03.295Z,1001.08
2023-07-27T07:24:03.327Z,1001.05
2023-07-27T07:25:03.414Z,1001.01
2023-07-27T07:26:03.372Z,1001.03
2023-07-27T07:27:03.419Z,1001.01
2023-07-27T07:28:03.428Z,1000.96
2023-07-27T07:29:03.456Z,1000.97
2023-07-27T07:30:03.482Z,1000.98
2023-07-27T07:31:03.537Z,1000.95
2023-07-27T07:32:03.541Z,1000.93
2023-07-27T07:33:03.653Z,1000.92
2023-07-27T07:34:03.692Z,1000.92
2023-07-27T07:35:03.713Z,1000.93
2023-07-27T07:36:03.691Z,1000.92
2023-07-27T07:37:03.670Z,1000.86
2023-07-27T07:38:03.709Z,1000.85
2023-07-27T07:39:03.709Z,1000.87
2023-07-27T07:40:03.737Z,1000.83
2023-07-27T07:41:03.762Z,1000.82
2023-07-27T07:42:03.796Z,1000.78
2023-07-27T07:43:03.913Z,1000.76
2023-07-27T07:44:03.839Z,1000.74
2023-07-27T07:45:03.880Z,1000.70
2023-07-27T07:46:03.983Z,1000.64
2023-07-27T07:47:03.978Z,1000.62
2023-07-27T07:48:03.995Z,1000.58
2023-07-27T07:49:04.039Z,1000.55
2023-07-27T07:50:04.025Z,1000.50
2023-07-27T07:51:04.026Z,1000.53
2023-07-27T07:52:04.046Z,1000.51
2023-07-27T07:53:04.077Z,1000.53
2023-07-27T07:54:04.102Z,1000.49
2023-07-27T07:55:04.130Z,1000.50
2023-07-27T07:56:04.187Z,1000.47
2023-07-27T07:57:04.180Z,1000.46
2023-07-27T07:58:04.205Z,1000.44
2023-07-27T07:59:04.229Z,1000.44
2023-07-27T08:00:04.904Z,1000.43
2023-07-27T08:01:04.321Z,1000.38
2023-07-27T08:02:04.407Z,1000.44
2023-07-27T08:03:04.383Z,1000.40
2023-07-27T08:04:04.359Z,1000.34
2023-07-27T08:05:04.380Z,1000.32
2023-07-27T08:06:04.419Z,1000.34
2023-07-27T08:07:04.444Z,1000.30
2023-07-27T08:08:04.466Z,1000.30
2023-07-27T08:09:04.494Z,1000.33
2023-07-27T08:10:04.657Z,1000.30
2023-07-27T08:11:04.543Z,1000.21
2023-07-27T08:12:04.561Z,1000.21
2023-07-27T08:13:04.586Z,1000.18
2023-07-27T08:14:04.628Z,1000.19
2023-07-27T08:15:04.638Z,1000.21
2023-07-27T08:16:04.833Z,1000.22
2023-07-27T08:17:05.499Z,1000.16
2023-07-27T08:18:04.761Z,1000.18
2023-07-27T08:19:04.748Z,1000.15
2023-07-27T08:20:04.835Z,1000.09
2023-07-27T08:21:04.799Z,1000.04
2023-07-27T08:22:04.820Z,1000.01
2023-07-27T08:23:04.849Z,1000.00
2023-07-27T08:24:04.870Z,999.89
2023-07-27T08:25:20.211Z,999.98
2023-07-27T08:26:04.934Z,999.95
2023-07-27T08:27:04.947Z,999.98
2023-07-27T08:28:04.982Z,1000.01
2023-07-27T08:29:05.095Z,1000.04
2023-07-27T08:30:05.032Z,1000.07
2023-07-27T08:31:05.162Z,1000.09
2023-07-27T08:32:05.103Z,1000.06
2023-07-27T08:33:05.169Z,999.93
2023-07-27T08:34:05.129Z,999.95
2023-07-27T08:35:05.156Z,999.96
2023-07-27T08:36:05.231Z,1000.03
2023-07-27T08:37:05.204Z,1000.04
2023-07-27T08:38:05.233Z,1000.04
2023-07-27T08:39:05.254Z,1000.02
2023-07-27T08:40:05.284Z,999.98
2023-07-27T08:41:05.318Z,999.95
2023-07-27T08:42:05.333Z,999.93
2023-07-27T08:43:05.371Z,999.92
2023-07-27T08:44:05.390Z,999.86
2023-07-27T08:45:05.415Z,999.83
2023-07-27T08:46:05.449Z,999.83
2023-07-27T08:47:05.471Z,999.77
2023-07-27T08:48:05.513Z,999.73
2023-07-27T08:49:05.523Z,999.72
2023-07-27T08:50:05.554Z,999.72
2023-07-27T08:51:05.571Z,999.72
2023-07-27T08:52:05.602Z,999.75
2023-07-27T08:53:05.620Z,999.80
2023-07-27T08:54:05.652Z,999.79
2023-07-27T08:55:05.676Z,999.79
2023-07-27T08:56:05.709Z,999.78
2023-07-27T08:57:05.751Z,999.75
2023-07-27T08:58:05.767Z,999.74
2023-07-27T08:59:05.787Z,999.71
2023-07-27T09:00:05.812Z,999.69
2023-07-27T09:01:05.833Z,999.67
2023-07-27T09:02:05.956Z,999.62
2023-07-27T09:03:05.987Z,999.65
2023-07-27T09:04:05.910Z,999.62
2023-07-27T09:05:05.988Z,999.60
2023-07-27T09:06:05.965Z,999.59
2023-07-27T09:07:05.992Z,999.57
2023-07-27T09:08:06.024Z,999.57
2023-07-27T09:09:06.045Z,999.50
2023-07-27T09:10:06.086Z,999.55
2023-07-27T09:11:06.105Z,999.53
2023-07-27T09:12:06.148Z,999.52
2023-07-27T09:13:06.185Z,999.53
2023-07-27T09:14:06.180Z,999.50
2023-07-27T09:15:06.206Z,999.47
2023-07-27T09:16:06.248Z,999.47
2023-07-27T09:17:06.281Z,999.47
2023-07-27T09:18:06.332Z,999.45
2023-07-27T09:19:06.314Z,999.47
2023-07-27T09:20:06.344Z,999.47
2023-07-27T09:21:06.388Z,999.47
2023-07-27T09:22:06.421Z,999.46
2023-07-27T09:23:06.464Z,999.49
2023-07-27T09:24:07.508Z,999.50
2023-07-27T09:25:06.479Z,999.50
2023-07-27T09:26:06.507Z,999.50
2023-07-27T09:27:06.558Z,999.51
2023-07-27T09:28:06.561Z,999.53
2023-07-27T09:29:06.938Z,999.46
2023-07-27T09:30:06.621Z,999.48
2023-07-27T09:31:06.665Z,999.47
2023-07-27T09:32:06.744Z,999.48
2023-07-27T09:33:06.804Z,999.47
2023-07-27T09:34:06.731Z,999.44
2023-07-27T09:35:06.781Z,999.43
2023-07-27T09:36:06.785Z,999.39
2023-07-27T09:37:06.829Z,999.34
2023-07-27T09:38:06.852Z,999.30
2023-07-27T09:39:06.865Z,999.33
2023-07-27T09:40:06.903Z,999.34
2023-07-27T09:41:06.932Z,999.34
2023-07-27T09:42:06.967Z,999.31
2023-07-27T09:43:06.976Z,999.29
2023-07-27T09:44:07.003Z,999.31
2023-07-27T09:45:07.041Z,999.26
2023-07-27T09:46:07.139Z,999.25
2023-07-27T09:47:07.117Z,999.23
2023-07-27T09:48:07.128Z,999.24
2023-07-27T09:49:07.157Z,999.23
2023-07-27T09:50:07.176Z,999.21
2023-07-27T09:51:07.206Z,999.22
2023-07-27T09:52:07.233Z,999.28
2023-07-27T09:53:07.260Z,999.23
2023-07-27T09:54:07.299Z,999.24
2023-07-27T09:55:07.317Z,999.21
2023-07-27T09:56:07.342Z,999.23
2023-07-27T09:57:07.372Z,999.23
2023-07-27T09:58:07.402Z,999.24
2023-07-27T09:59:07.441Z,999.22
2023-07-27T10:00:07.453Z,999.20
2023-07-27T10:01:07.505Z,999.22
2023-07-27T10:02:07.512Z,999.15
2023-07-27T10:03:10.629Z,999.20
2023-07-27T10:04:07.570Z,999.21
2023-07-27T10:05:08.645Z,999.19
2023-07-27T10:06:07.631Z,999.19
2023-07-27T10:07:07.657Z,999.18
2023-07-27T10:08:07.677Z,999.20
2023-07-27T10:09:07.709Z,999.18
2023-07-27T10:10:07.752Z,999.18
2023-07-27T10:11:07.764Z,999.19
2023-07-27T10:12:07.800Z,999.20
2023-07-27T10:13:07.822Z,999.19
2023-07-27T10:14:07.848Z,999.22
2023-07-27T10:15:07.877Z,999.16
2023-07-27T10:16:07.925Z,999.18
2023-07-27T10:17:08.046Z,999.20
2023-07-27T10:18:07.961Z,999.19
2023-07-27T10:19:07.986Z,999.21
2023-07-27T10:20:08.019Z,999.18
2023-07-27T10:21:09.896Z,999.16
2023-07-27T10:22:08.078Z,999.16
2023-07-27T10:23:08.104Z,999.12
2023-07-27T10:24:08.132Z,999.16
2023-07-27T10:25:08.161Z,999.12
2023-07-27T10:26:08.198Z,999.12
2023-07-27T10:27:08.220Z,999.12
2023-07-27T10:28:08.254Z,999.16
2023-07-27T10:29:08.278Z,999.09
2023-07-27T10:30:08.304Z,999.11
2023-07-27T10:31:08.347Z,999.13
2023-07-27T10:32:08.434Z,999.08
2023-07-27T10:33:08.390Z,999.09
2023-07-27T10:35:08.442Z,999.08
2023-07-27T10:36:08.474Z,999.07
2023-07-27T10:37:08.496Z,999.08
2023-07-27T10:38:08.527Z,999.07
2023-07-27T10:39:08.557Z,999.07
2023-07-27T10:40:08.585Z,999.04
2023-07-27T10:41:08.614Z,999.07
2023-07-27T10:42:08.731Z,999.08
2023-07-27T10:43:08.672Z,999.10
2023-07-27T10:44:08.868Z,999.08
2023-07-27T10:45:08.725Z,999.07
2023-07-27T10:46:08.785Z,999.02
2023-07-27T10:47:08.791Z,999.05
2023-07-27T10:48:08.850Z,999.01
2023-07-27T10:49:08.849Z,998.96
2023-07-27T10:50:08.897Z,999.00
2023-07-27T10:51:08.902Z,998.98
2023-07-27T10:52:08.926Z,998.96
2023-07-27T10:53:08.956Z,998.91
2023-07-27T10:54:08.994Z,998.90
2023-07-27T10:55:09.017Z,998.92
2023-07-27T10:56:09.047Z,998.92
2023-07-27T10:57:09.072Z,998.90
2023-07-27T10:58:09.099Z,998.91
2023-07-27T10:59:09.137Z,998.91
2023-07-27T11:00:09.156Z,998.94
2023-07-27T11:01:09.237Z,998.93
2023-07-27T11:02:09.235Z,998.89
2023-07-27T11:03:09.325Z,998.91
2023-07-27T11:04:09.273Z,998.90
2023-07-27T11:05:09.342Z,998.86
2023-07-27T11:06:09.335Z,998.90
2023-07-27T11:07:09.374Z,998.88
2023-07-27T11:08:09.396Z,998.85
2023-07-27T11:09:09.426Z,998.85
2023-07-27T11:10:09.497Z,998.88
2023-07-27T11:11:09.481Z,998.83
2023-07-27T11:12:09.505Z,998.84
2023-07-27T11:13:09.539Z,998.81
2023-07-27T11:14:09.579Z,998.81
2023-07-27T11:15:09.603Z,998.85
2023-07-27T11:16:09.634Z,998.85
2023-07-27T11:17:09.674Z,998.82
2023-07-27T11:18:09.736Z,998.83
2023-07-27T11:19:09.723Z,998.78
2023-07-27T11:20:09.842Z,998.81
2023-07-27T11:21:09.791Z,998.74
2023-07-27T11:22:11.181Z,998.77
2023-07-27T11:23:09.832Z,998.78
2023-07-27T11:24:09.892Z,998.78
2023-07-27T11:25:09.888Z,998.77
2023-07-27T11:26:09.919Z,998.78
2023-07-27T11:27:09.950Z,998.78
2023-07-27T11:28:09.974Z,998.80
2023-07-27T11:29:10.031Z,998.75
2023-07-27T11:30:10.078Z,998.79
2023-07-27T11:31:10.112Z,998.76
2023-07-27T11:32:10.091Z,998.73
2023-07-27T11:33:10.137Z,998.75
2023-07-27T11:34:10.938Z,998.74
2023-07-27T11:35:10.182Z,998.74
2023-07-27T11:36:10.206Z,998.71
2023-07-27T11:37:10.243Z,998.70
2023-07-27T11:38:10.265Z,998.67
2023-07-27T11:39:10.298Z,998.71
2023-07-27T11:40:10.978Z,998.68
2023-07-27T11:41:37.629Z,998.69
2023-07-27T11:42:10.386Z,998.67
2023-07-27T11:43:10.411Z,998.66
2023-07-27T11:44:10.454Z,998.66
2023-07-27T11:45:10.476Z,998.65
2023-07-27T11:46:10.535Z,998.62
2023-07-27T11:47:10.538Z,998.60
2023-07-27T11:48:10.611Z,998.58
2023-07-27T11:49:10.621Z,998.55
2023-07-27T11:50:10.606Z,998.54
2023-07-27T11:51:10.634Z,998.51
2023-07-27T11:52:10.675Z,998.52
2023-07-27T11:53:11.463Z,998.53
2023-07-27T11:54:10.726Z,998.54
2023-07-27T11:55:10.752Z,998.54
2023-07-27T11:56:10.788Z,998.53
2023-07-27T11:57:10.829Z,998.51
2023-07-27T11:58:10.897Z,998.50
2023-07-27T11:59:10.885Z,998.49
2023-07-27T12:00:10.905Z,998.48
2023-07-27T12:01:10.931Z,998.49
2023-07-27T12:02:11.005Z,998.57
2023-07-27T12:03:22.067Z,998.49
2023-07-27T12:04:11.052Z,998.51
2023-07-27T12:05:11.052Z,998.53
2023-07-27T12:06:11.079Z,998.50
2023-07-27T12:07:11.109Z,998.51
2023-07-27T12:09:11.172Z,998.52
2023-07-27T12:10:14.446Z,998.48
2023-07-27T12:11:40.821Z,998.52
2023-07-27T12:12:11.258Z,998.47
2023-07-27T12:14:11.331Z,998.50
2023-07-27T12:15:11.349Z,998.46
2023-07-27T12:17:36.329Z,998.49
2023-07-27T12:18:11.469Z,998.50
2023-07-27T12:19:11.471Z,998.49
2023-07-27T12:32:12.562Z,998.53
2023-07-27T12:33:11.886Z,998.46
2023-07-27T12:34:12.974Z,998.47
2023-07-27T12:36:11.971Z,998.40
2023-07-27T12:39:12.069Z,998.41
2023-07-27T12:40:12.101Z,998.39
2023-07-27T12:41:12.122Z,998.42
2023-07-27T12:43:12.187Z,998.41
2023-07-27T12:44:12.213Z,998.40
2023-07-27T12:45:12.246Z,998.37
2023-07-27T12:46:12.441Z,998.39
2023-07-27T12:47:12.297Z,998.38
2023-07-27T12:48:12.346Z,998.35
2023-07-27T12:49:12.361Z,998.35
2023-07-27T12:50:12.401Z,998.34
2023-07-27T12:51:12.431Z,998.32
2023-07-27T12:52:12.448Z,998.31
2023-07-27T12:53:12.484Z,998.32
2023-07-27T12:54:12.507Z,998.33
2023-07-27T12:55:12.537Z,998.31
2023-07-27T12:56:12.576Z,998.31
2023-07-27T12:57:12.601Z,998.27
2023-07-27T12:58:12.628Z,998.27
2023-07-27T12:59:12.669Z,998.23
2023-07-27T13:00:12.692Z,998.24
2023-07-27T13:01:12.717Z,998.21
2023-07-27T13:02:12.786Z,998.26
2023-07-27T13:03:12.884Z,998.24
2023-07-27T13:04:12.806Z,998.26
2023-07-27T13:05:12.853Z,998.20
2023-07-27T13:06:12.868Z,998.27
2023-07-27T13:07:12.904Z,998.25
2023-07-27T13:08:12.927Z,998.23
2023-07-27T13:09:12.966Z,998.21
2023-07-27T13:10:12.990Z,998.21
2023-07-27T13:11:13.032Z,998.21
2023-07-27T13:12:14.750Z,998.18
2023-07-27T13:13:13.080Z,998.23
2023-07-27T13:14:13.108Z,998.20
2023-07-27T13:15:13.144Z,998.20